createdAt,value
2018-04-28T00:00:06.105Z,60.30
2018-04-28T00:01:06.057Z,60.49
2018-04-28T00:02:06.011Z,60.30
2018-04-28T00:03:05.965Z,60.11
2018-04-28T00:04:05.919Z,60.21
2018-04-28T00:05:05.871Z,60.58
2018-04-28T00:06:05.824Z,60.68
2018-04-28T00:07:05.779Z,60.78
2018-04-28T00:08:05.733Z,60.87
2018-04-28T00:09:05.685Z,60.87
2018-04-28T00:10:05.639Z,60.87
2018-04-28T00:11:05.596Z,60.87
2018-04-28T00:12:05.546Z,60.84
2018-04-28T00:13:05.503Z,61.04
2018-04-28T00:14:05.453Z,61.41
2018-04-28T00:15:05.408Z,61.04
2018-04-28T00:16:05.360Z,61.13
2018-04-28T00:17:05.313Z,61.41
2018-04-28T00:18:05.266Z,61.13
2018-04-28T00:19:05.220Z,61.13
2018-04-28T00:20:05.181Z,61.13
2018-04-28T00:21:05.126Z,61.22
2018-04-28T00:22:05.091Z,61.32
2018-04-28T00:23:05.033Z,60.94
2018-04-28T00:24:04.986Z,61.32
2018-04-28T00:25:04.939Z,60.84
2018-04-28T00:26:04.893Z,60.94
2018-04-28T00:27:04.846Z,60.94
2018-04-28T00:28:04.800Z,61.13
2018-04-28T00:29:04.752Z,61.04
2018-04-28T00:30:04.706Z,61.22
2018-04-28T00:31:04.661Z,61.13
2018-04-28T00:32:04.613Z,61.41
2018-04-28T00:33:04.566Z,61.32
2018-04-28T00:34:04.519Z,61.22
2018-04-28T00:35:04.473Z,61.41
2018-04-28T00:36:04.426Z,61.22
2018-04-28T00:37:04.379Z,61.60
2018-04-28T00:38:04.332Z,61.60
2018-04-28T00:39:04.287Z,61.60
2018-04-28T00:40:04.240Z,61.32
2018-04-28T00:41:04.191Z,61.51
2018-04-28T00:42:04.145Z,61.41
2018-04-28T00:43:04.099Z,61.41
2018-04-28T00:44:04.052Z,61.41
2018-04-28T00:45:04.005Z,61.80
2018-04-28T00:46:03.958Z,61.80
2018-04-28T00:47:03.912Z,61.32
2018-04-28T00:48:03.869Z,61.89
2018-04-28T00:49:03.818Z,61.60
2018-04-28T00:50:03.772Z,61.70
2018-04-28T00:51:03.724Z,61.99
2018-04-28T00:52:03.678Z,62.27
2018-04-28T00:53:03.631Z,62.37
2018-04-28T00:54:03.584Z,62.27
2018-04-28T00:55:03.537Z,62.27
2018-04-28T00:56:03.491Z,62.37
2018-04-28T00:57:03.443Z,62.65
2018-04-28T00:58:03.399Z,62.27
2018-04-28T00:59:03.349Z,62.65
2018-04-28T01:00:03.353Z,62.56
2018-04-28T01:01:03.256Z,62.46
2018-04-28T01:02:03.209Z,63.04
2018-04-28T01:03:03.162Z,62.75
2018-04-28T01:04:03.117Z,63.04
2018-04-28T01:05:03.068Z,62.84
2018-04-28T01:06:03.023Z,62.56
2018-04-28T01:07:02.975Z,63.23
2018-04-28T01:08:02.929Z,63.42
2018-04-28T01:09:02.880Z,63.13
2018-04-28T01:10:02.834Z,63.32
2018-04-28T01:11:02.793Z,63.32
2018-04-28T01:12:02.744Z,63.23
2018-04-28T01:13:02.692Z,63.51
2018-04-28T01:14:02.646Z,63.32
2018-04-28T01:15:02.605Z,63.42
2018-04-28T01:16:02.553Z,63.04
2018-04-28T01:17:02.505Z,63.04
2018-04-28T01:18:02.457Z,63.42
2018-04-28T01:19:02.410Z,63.60
2018-04-28T01:20:02.364Z,63.99
2018-04-28T01:21:02.316Z,63.89
2018-04-28T01:22:02.269Z,63.99
2018-04-28T01:23:02.223Z,64.37
2018-04-28T01:24:02.176Z,64.34
2018-04-28T01:25:02.128Z,63.96
2018-04-28T01:26:02.080Z,63.86
2018-04-28T01:27:02.034Z,64.47
2018-04-28T01:28:01.987Z,64.37
2018-04-28T01:29:01.939Z,64.18
2018-04-28T01:30:01.925Z,63.96
2018-04-28T01:31:01.845Z,64.43
2018-04-28T01:32:01.797Z,64.43
2018-04-28T01:33:01.763Z,64.05
2018-04-28T01:34:01.703Z,64.72
2018-04-28T01:35:01.656Z,64.53
2018-04-28T01:36:01.609Z,65.10
2018-04-28T01:37:01.560Z,65.00
2018-04-28T01:38:01.513Z,64.81
2018-04-28T01:39:01.467Z,64.91
2018-04-28T01:40:01.419Z,64.91
2018-04-28T01:41:01.372Z,65.10
2018-04-28T01:42:01.334Z,65.29
2018-04-28T01:43:01.281Z,65.00
2018-04-28T01:44:01.230Z,65.48
2018-04-28T01:45:01.182Z,65.20
2018-04-28T01:46:01.136Z,65.00
2018-04-28T01:47:01.088Z,65.39
2018-04-28T01:48:01.086Z,65.48
2018-04-28T01:49:00.993Z,65.39
2018-04-28T01:50:00.945Z,65.39
2018-04-28T01:51:00.898Z,65.58
2018-04-28T01:52:00.858Z,65.77
2018-04-28T01:53:00.803Z,65.58
2018-04-28T01:54:00.760Z,65.39
2018-04-28T01:55:00.708Z,65.48
2018-04-28T01:56:00.666Z,65.48
2018-04-28T01:57:00.613Z,65.39
2018-04-28T01:58:00.616Z,65.58
2018-04-28T01:59:00.519Z,65.58
2018-04-28T02:00:00.472Z,66.15
2018-04-28T02:01:00.424Z,65.96
2018-04-28T02:02:00.377Z,66.05
2018-04-28T02:03:00.328Z,65.67
2018-04-28T02:04:00.283Z,65.96
2018-04-28T02:05:00.235Z,65.96
2018-04-28T02:06:00.192Z,65.77
2018-04-28T02:07:00.140Z,65.77
2018-04-28T02:08:00.093Z,65.67
2018-04-28T02:09:00.045Z,65.96
2018-04-28T02:10:00.000Z,66.34
2018-04-28T02:10:59.950Z,66.63
2018-04-28T02:11:59.903Z,66.24
2018-04-28T02:12:59.855Z,66.34
2018-04-28T02:13:59.808Z,66.15
2018-04-28T02:14:59.760Z,66.24
2018-04-28T02:15:59.714Z,66.15
2018-04-28T02:16:59.666Z,66.63
2018-04-28T02:17:59.618Z,66.82
2018-04-28T02:18:59.571Z,67.20
2018-04-28T02:19:59.524Z,67.10
2018-04-28T02:20:59.477Z,66.82
2018-04-28T02:21:59.436Z,66.82
2018-04-28T02:22:59.381Z,66.88
2018-04-28T02:23:59.334Z,67.20
2018-04-28T02:24:59.285Z,67.20
2018-04-28T02:25:59.238Z,66.97
2018-04-28T02:26:59.191Z,66.53
2018-04-28T02:27:59.144Z,67.00
2018-04-28T02:28:59.095Z,66.63
2018-04-28T02:29:59.048Z,67.48
2018-04-28T02:30:59.001Z,67.48
2018-04-28T02:31:58.954Z,67.48
2018-04-28T02:32:58.905Z,67.20
2018-04-28T02:33:58.858Z,67.48
2018-04-28T02:34:58.811Z,67.07
2018-04-28T02:35:58.765Z,67.48
2018-04-28T02:36:58.715Z,67.83
2018-04-28T02:37:58.668Z,67.96
2018-04-28T02:38:58.625Z,67.96
2018-04-28T02:39:58.576Z,67.55
2018-04-28T02:40:58.525Z,67.39
2018-04-28T02:41:58.477Z,67.58
2018-04-28T02:42:58.430Z,67.86
2018-04-28T02:43:58.382Z,68.02
2018-04-28T02:44:58.334Z,68.02
2018-04-28T02:45:58.287Z,67.74
2018-04-28T02:46:58.239Z,67.83
2018-04-28T02:47:58.192Z,67.74
2018-04-28T02:48:58.150Z,67.64
2018-04-28T02:49:58.096Z,67.55
2018-04-28T02:50:58.048Z,67.64
2018-04-28T02:51:58.004Z,67.64
2018-04-28T02:52:57.959Z,68.02
2018-04-28T02:53:57.905Z,67.64
2018-04-28T02:54:57.857Z,67.64
2018-04-28T02:55:57.810Z,67.74
2018-04-28T02:56:57.765Z,68.50
2018-04-28T02:57:57.713Z,68.59
2018-04-28T02:58:57.667Z,68.50
2018-04-28T02:59:57.625Z,68.30
2018-04-28T03:00:57.570Z,68.12
2018-04-28T03:01:57.527Z,68.78
2018-04-28T03:02:57.475Z,68.40
2018-04-28T03:03:57.428Z,68.40
2018-04-28T03:04:57.379Z,68.88
2018-04-28T03:05:57.332Z,68.78
2018-04-28T03:06:57.285Z,68.59
2018-04-28T03:07:57.237Z,68.59
2018-04-28T03:08:57.188Z,68.59
2018-04-28T03:09:57.140Z,68.59
2018-04-28T03:10:57.093Z,68.40
2018-04-28T03:11:57.045Z,69.07
2018-04-28T03:12:56.996Z,68.98
2018-04-28T03:13:56.950Z,68.88
2018-04-28T03:14:56.902Z,69.26
2018-04-28T03:15:56.854Z,69.07
2018-04-28T03:16:56.805Z,68.98
2018-04-28T03:17:56.772Z,69.54
2018-04-28T03:18:56.717Z,69.07
2018-04-28T03:19:56.670Z,69.07
2018-04-28T03:20:56.613Z,69.26
2018-04-28T03:21:56.571Z,69.26
2018-04-28T03:22:56.518Z,69.35
2018-04-28T03:23:56.471Z,69.93
2018-04-28T03:24:56.426Z,69.64
2018-04-28T03:25:56.374Z,69.64
2018-04-28T03:26:56.326Z,69.74
2018-04-28T03:27:56.279Z,69.74
2018-04-28T03:28:56.231Z,69.64
2018-04-28T03:29:56.182Z,69.64
2018-04-28T03:30:56.138Z,69.83
2018-04-28T03:31:56.100Z,69.64
2018-04-28T03:32:56.080Z,69.60
2018-04-28T03:33:55.992Z,69.74
2018-04-28T03:34:55.945Z,69.74
2018-04-28T03:35:55.896Z,69.74
2018-04-28T03:36:55.847Z,69.64
2018-04-28T03:37:55.799Z,69.54
2018-04-28T03:38:55.751Z,69.83
2018-04-28T03:39:55.703Z,69.45
2018-04-28T03:40:55.655Z,69.45
2018-04-28T03:41:55.607Z,69.93
2018-04-28T03:42:55.559Z,69.64
2018-04-28T03:43:55.511Z,69.93
2018-04-28T03:44:55.463Z,69.74
2018-04-28T03:45:55.415Z,69.64
2018-04-28T03:46:55.367Z,69.64
2018-04-28T03:47:55.320Z,69.64
2018-04-28T03:48:55.271Z,70.02
2018-04-28T03:49:55.223Z,69.54
2018-04-28T03:50:55.178Z,70.12
2018-04-28T03:51:55.128Z,70.59
2018-04-28T03:52:55.079Z,70.88
2018-04-28T03:53:55.032Z,70.69
2018-04-28T03:54:54.983Z,70.50
2018-04-28T03:55:54.936Z,70.78
2018-04-28T03:56:54.888Z,70.31
2018-04-28T03:57:54.843Z,71.07
2018-04-28T03:58:54.794Z,70.47
2018-04-28T03:59:54.744Z,71.07
2018-04-28T04:00:54.695Z,70.40
2018-04-28T04:01:54.647Z,70.21
2018-04-28T04:02:54.600Z,70.59
2018-04-28T04:03:54.552Z,70.69
2018-04-28T04:04:54.515Z,70.50
2018-04-28T04:05:54.457Z,70.31
2018-04-28T04:06:54.408Z,70.12
2018-04-28T04:07:54.360Z,70.02
2018-04-28T04:08:54.312Z,70.02
2018-04-28T04:09:54.264Z,70.21
2018-04-28T04:10:54.216Z,69.93
2018-04-28T04:11:54.169Z,69.54
2018-04-28T04:12:54.120Z,69.93
2018-04-28T04:13:54.072Z,70.02
2018-04-28T04:14:54.029Z,69.64
2018-04-28T04:15:53.977Z,69.83
2018-04-28T04:16:53.929Z,69.54
2018-04-28T04:17:53.885Z,69.77
2018-04-28T04:18:53.834Z,69.83
2018-04-28T04:19:53.787Z,69.54
2018-04-28T04:20:53.739Z,69.74
2018-04-28T04:21:53.691Z,69.54
2018-04-28T04:22:53.644Z,69.54
2018-04-28T04:23:53.597Z,69.54
2018-04-28T04:24:53.548Z,70.02
2018-04-28T04:25:53.501Z,70.02
2018-04-28T04:26:53.453Z,70.02
2018-04-28T04:27:53.412Z,69.74
2018-04-28T04:28:53.361Z,70.02
2018-04-28T04:29:53.312Z,69.74
2018-04-28T04:30:53.263Z,69.83
2018-04-28T04:31:53.264Z,69.54
2018-04-28T04:32:53.167Z,69.54
2018-04-28T04:33:53.120Z,69.64
2018-04-28T04:34:53.072Z,69.74
2018-04-28T04:35:53.025Z,69.64
2018-04-28T04:36:52.977Z,69.74
2018-04-28T04:37:52.929Z,69.74
2018-04-28T04:38:52.882Z,69.74
2018-04-28T04:39:52.835Z,69.68
2018-04-28T04:40:52.787Z,69.83
2018-04-28T04:41:52.739Z,69.83
2018-04-28T04:42:52.692Z,69.20
2018-04-28T04:43:52.645Z,69.29
2018-04-28T04:44:52.600Z,69.10
2018-04-28T04:45:52.554Z,68.91
2018-04-28T04:46:52.503Z,69.20
2018-04-28T04:47:52.456Z,69.48
2018-04-28T04:48:52.407Z,69.01
2018-04-28T04:49:52.361Z,68.63
2018-04-28T04:50:52.314Z,68.82
2018-04-28T04:51:52.266Z,68.82
2018-04-28T04:52:52.218Z,68.34
2018-04-28T04:53:52.171Z,68.44
2018-04-28T04:54:52.126Z,68.53
2018-04-28T04:55:52.128Z,68.63
2018-04-28T04:56:52.032Z,68.05
2018-04-28T04:57:51.982Z,68.28
2018-04-28T04:58:51.936Z,68.57
2018-04-28T04:59:51.889Z,67.80
2018-04-28T05:00:51.841Z,67.71
2018-04-28T05:01:51.794Z,67.71
2018-04-28T05:02:51.748Z,68.09
2018-04-28T05:03:51.700Z,68.09
2018-04-28T05:04:51.653Z,67.52
2018-04-28T05:05:51.606Z,67.52
2018-04-28T05:06:51.559Z,67.23
2018-04-28T05:07:51.564Z,67.80
2018-04-28T05:08:51.470Z,67.52
2018-04-28T05:09:51.418Z,67.04
2018-04-28T05:10:51.373Z,67.27
2018-04-28T05:11:51.325Z,67.07
2018-04-28T05:12:51.278Z,67.27
2018-04-28T05:13:51.231Z,66.88
2018-04-28T05:14:51.184Z,66.41
2018-04-28T05:15:51.137Z,65.77
2018-04-28T05:16:51.090Z,65.87
2018-04-28T05:17:51.044Z,65.48
2018-04-28T05:18:50.997Z,65.30
2018-04-28T05:19:50.951Z,64.85
2018-04-28T05:20:50.905Z,64.65
2018-04-28T05:21:50.859Z,64.47
2018-04-28T05:22:50.813Z,64.09
2018-04-28T05:23:50.767Z,64.18
2018-04-28T05:24:50.720Z,64.05
2018-04-28T05:25:50.675Z,64.15
2018-04-28T05:26:50.629Z,64.15
2018-04-28T05:27:50.582Z,63.99
2018-04-28T05:28:50.535Z,63.32
2018-04-28T05:29:50.490Z,63.48
2018-04-28T05:30:50.445Z,63.13
2018-04-28T05:31:50.398Z,63.03
2018-04-28T05:32:50.351Z,61.66
2018-04-28T05:33:50.311Z,60.93
2018-04-28T05:34:50.261Z,59.08
2018-04-28T05:35:50.215Z,57.57
2018-04-28T05:36:50.170Z,55.52
2018-04-28T05:37:50.125Z,53.46
2018-04-28T05:38:50.082Z,52.14
2018-04-28T05:39:50.037Z,50.25
2018-04-28T05:40:50.069Z,49.51
2018-04-28T05:41:49.949Z,48.38
2018-04-28T05:42:49.906Z,47.05
2018-04-28T05:43:49.864Z,46.88
2018-04-28T05:44:49.820Z,45.65
2018-04-28T05:45:49.778Z,44.13
2018-04-28T05:46:49.736Z,43.58
2018-04-28T05:47:49.695Z,42.15
2018-04-28T05:48:49.652Z,41.50
2018-04-28T05:49:49.611Z,40.65
2018-04-28T05:50:49.570Z,39.90
2018-04-28T05:51:49.532Z,39.22
2018-04-28T05:52:49.488Z,38.46
2018-04-28T05:53:49.448Z,37.60
2018-04-28T05:54:49.407Z,37.38
2018-04-28T05:55:49.367Z,37.75
2018-04-28T05:56:49.327Z,38.21
2018-04-28T05:57:49.322Z,38.66
2018-04-28T05:58:49.256Z,39.61
2018-04-28T05:59:49.207Z,39.97
2018-04-28T06:00:49.166Z,41.08
2018-04-28T06:01:49.126Z,42.03
2018-04-28T06:02:49.085Z,42.10
2018-04-28T06:03:49.049Z,42.77
2018-04-28T06:04:49.003Z,42.89
2018-04-28T06:05:48.962Z,42.33
2018-04-28T06:06:48.920Z,41.20
2018-04-28T06:07:48.884Z,41.13
2018-04-28T06:08:48.837Z,40.36
2018-04-28T06:09:48.798Z,40.16
2018-04-28T06:10:48.757Z,40.14
2018-04-28T06:11:48.715Z,40.61
2018-04-28T06:12:48.674Z,41.18
2018-04-28T06:13:48.633Z,41.35
2018-04-28T06:14:48.592Z,42.30
2018-04-28T06:15:48.551Z,42.49
2018-04-28T06:16:48.509Z,43.14
2018-04-28T06:17:48.468Z,43.31
2018-04-28T06:18:48.426Z,44.08
2018-04-28T06:19:48.385Z,43.79
2018-04-28T06:20:48.345Z,44.15
2018-04-28T06:21:48.301Z,44.17
2018-04-28T06:22:48.263Z,44.08
2018-04-28T06:23:48.222Z,44.27
2018-04-28T06:24:48.174Z,44.17
2018-04-28T06:25:48.182Z,44.46
2018-04-28T06:26:48.090Z,44.17
2018-04-28T06:27:48.049Z,43.91
2018-04-28T06:28:48.006Z,43.62
2018-04-28T06:29:47.964Z,43.23
2018-04-28T06:30:47.922Z,43.26
2018-04-28T06:31:47.881Z,43.33
2018-04-28T06:32:47.838Z,43.23
2018-04-28T06:33:47.796Z,43.14
2018-04-28T06:34:47.758Z,43.33
2018-04-28T06:35:47.811Z,43.23
2018-04-28T06:36:47.673Z,43.14
2018-04-28T06:37:47.629Z,43.62
2018-04-28T06:38:47.656Z,43.23
2018-04-28T06:39:47.553Z,43.23
2018-04-28T06:40:47.560Z,43.16
2018-04-28T06:41:47.475Z,43.26
2018-04-28T06:42:47.419Z,43.16
2018-04-28T06:43:47.377Z,43.16
2018-04-28T06:44:47.335Z,43.45
2018-04-28T06:45:47.296Z,43.64
2018-04-28T06:46:47.252Z,42.97
2018-04-28T06:47:47.210Z,42.77
2018-04-28T06:48:47.168Z,42.49
2018-04-28T06:49:47.131Z,42.50
2018-04-28T06:50:47.085Z,42.58
2018-04-28T06:51:47.043Z,42.68
2018-04-28T06:52:47.002Z,43.07
2018-04-28T06:53:46.958Z,43.07
2018-04-28T06:54:46.917Z,42.87
2018-04-28T06:55:46.876Z,42.68
2018-04-28T06:56:46.833Z,42.60
2018-04-28T06:57:46.793Z,42.33
2018-04-28T06:58:46.750Z,41.18
2018-04-28T06:59:46.709Z,41.13
2018-04-28T07:00:46.666Z,39.99
2018-04-28T07:01:46.625Z,39.14
2018-04-28T07:02:46.584Z,38.20
2018-04-28T07:03:46.547Z,37.91
2018-04-28T07:04:46.502Z,38.12
2018-04-28T07:05:46.462Z,38.20
2018-04-28T07:06:46.422Z,37.71
2018-04-28T07:07:46.383Z,38.01
2018-04-28T07:08:46.340Z,38.28
2018-04-28T07:09:46.300Z,38.28
2018-04-28T07:10:46.317Z,38.46
2018-04-28T07:11:46.222Z,38.56
2018-04-28T07:12:46.179Z,38.56
2018-04-28T07:13:46.141Z,38.56
2018-04-28T07:14:46.108Z,38.28
2018-04-28T07:15:46.059Z,38.08
2018-04-28T07:16:46.019Z,37.83
2018-04-28T07:17:45.978Z,36.71
2018-04-28T07:18:45.939Z,35.21
2018-04-28T07:19:45.900Z,33.62
2018-04-28T07:20:45.861Z,32.10
2018-04-28T07:21:45.823Z,31.08
2018-04-28T07:22:45.785Z,29.75
2018-04-28T07:23:45.749Z,28.99
2018-04-28T07:24:45.711Z,28.70
2018-04-28T07:25:45.675Z,27.94
2018-04-28T07:26:45.639Z,27.66
2018-04-28T07:27:45.604Z,26.32
2018-04-28T07:28:45.568Z,25.95
2018-04-28T07:29:45.533Z,25.85
2018-04-28T07:30:45.499Z,25.57
2018-04-28T07:31:45.464Z,25.47
2018-04-28T07:32:45.429Z,25.08
2018-04-28T07:33:45.395Z,24.88
2018-04-28T07:34:45.361Z,24.95
2018-04-28T07:35:45.327Z,25.34
2018-04-28T07:36:45.292Z,25.05
2018-04-28T07:37:45.259Z,24.60
2018-04-28T07:38:45.225Z,23.35
2018-04-28T07:39:45.192Z,23.28
2018-04-28T07:40:45.158Z,22.23
2018-04-28T07:41:45.125Z,21.16
2018-04-28T07:42:45.092Z,21.09
2018-04-28T07:43:45.060Z,20.41
2018-04-28T07:44:45.031Z,19.64
2018-04-28T07:45:44.995Z,20.12
2018-04-28T07:46:44.963Z,19.04
2018-04-28T07:47:44.931Z,20.01
2018-04-28T07:48:44.898Z,19.71
2018-04-28T07:49:44.867Z,19.80
2018-04-28T07:50:44.836Z,19.80
2018-04-28T07:51:44.804Z,19.81
2018-04-28T07:52:44.771Z,19.81
2018-04-28T07:53:44.740Z,19.72
2018-04-28T07:54:44.709Z,18.85
2018-04-28T07:55:44.678Z,18.46
2018-04-28T07:56:44.647Z,18.57
2018-04-28T07:57:44.615Z,17.80
2018-04-28T07:58:44.584Z,17.12
2018-04-28T07:59:44.554Z,16.93
2018-04-28T08:00:44.525Z,16.53
2018-04-28T08:01:44.492Z,16.14
2018-04-28T08:02:44.462Z,15.84
2018-04-28T08:03:44.432Z,16.14
2018-04-28T08:04:44.401Z,16.16
2018-04-28T08:05:44.371Z,15.57
2018-04-28T08:06:44.342Z,15.48
2018-04-28T08:07:44.312Z,15.00
2018-04-28T08:08:44.282Z,14.82
2018-04-28T08:09:44.253Z,14.83
2018-04-28T08:10:44.225Z,14.83
2018-04-28T08:11:44.198Z,14.04
2018-04-28T08:12:44.166Z,13.76
2018-04-28T08:13:44.137Z,13.66
2018-04-28T08:14:44.117Z,13.37
2018-04-28T08:15:44.079Z,13.48
2018-04-28T08:16:44.050Z,12.79
2018-04-28T08:17:44.023Z,12.40
2018-04-28T08:18:43.993Z,12.40
2018-04-28T08:19:43.965Z,12.60
2018-04-28T08:20:44.012Z,12.21
2018-04-28T08:21:43.912Z,11.81
2018-04-28T08:22:43.880Z,11.82
2018-04-28T08:23:43.854Z,11.82
2018-04-28T08:24:43.825Z,11.82
2018-04-28T08:25:43.801Z,11.52
2018-04-28T08:26:43.771Z,11.51
2018-04-28T08:27:43.744Z,11.51
2018-04-28T08:28:43.716Z,11.70
2018-04-28T08:29:43.709Z,11.40
2018-04-28T08:30:43.662Z,11.80
2018-04-28T08:31:43.635Z,11.60
2018-04-28T08:32:43.609Z,11.69
2018-04-28T08:33:43.581Z,11.79
2018-04-28T08:34:43.555Z,11.79
2018-04-28T08:35:43.527Z,11.60
2018-04-28T08:36:43.499Z,11.40
2018-04-28T08:37:43.472Z,11.60
2018-04-28T08:38:43.450Z,11.01
2018-04-28T08:39:43.420Z,10.82
2018-04-28T08:40:43.392Z,10.72
2018-04-28T08:41:43.366Z,10.52
2018-04-28T08:42:43.340Z,10.33
2018-04-28T08:43:43.314Z,10.53
2018-04-28T08:44:43.300Z,10.24
2018-04-28T08:45:43.262Z,9.75
2018-04-28T08:46:43.234Z,9.85
2018-04-28T08:47:43.214Z,9.46
2018-04-28T08:48:43.183Z,8.96
2018-04-28T08:49:43.157Z,9.16
2018-04-28T08:50:43.132Z,9.16
2018-04-28T08:51:43.107Z,8.76
2018-04-28T08:52:43.081Z,8.67
2018-04-28T08:53:43.056Z,8.67
2018-04-28T08:54:43.031Z,8.56
2018-04-28T08:55:43.006Z,8.47
2018-04-28T08:56:43.077Z,8.47
2018-04-28T08:57:42.956Z,8.76
2018-04-28T08:58:42.931Z,8.47
2018-04-28T08:59:42.912Z,8.76
2018-04-28T09:00:42.881Z,8.57
2018-04-28T09:01:42.856Z,8.26
2018-04-28T09:02:42.832Z,8.56
2018-04-28T09:03:42.883Z,8.47
2018-04-28T09:04:42.782Z,8.76
2018-04-28T09:05:42.757Z,8.56
2018-04-28T09:06:42.732Z,8.86
2018-04-28T09:07:42.707Z,8.47
2018-04-28T09:08:42.683Z,8.47
2018-04-28T09:09:42.658Z,8.36
2018-04-28T09:10:42.634Z,8.16
2018-04-28T09:11:42.609Z,8.36
2018-04-28T09:12:42.585Z,8.66
2018-04-28T09:13:42.559Z,8.36
2018-04-28T09:14:42.537Z,8.46
2018-04-28T09:15:42.510Z,8.86
2018-04-28T09:16:42.485Z,9.15
2018-04-28T09:17:42.463Z,9.64
2018-04-28T09:18:42.434Z,9.34
2018-04-28T09:19:42.410Z,9.64
2018-04-28T09:20:42.389Z,9.34
2018-04-28T09:21:42.359Z,9.34
2018-04-28T09:22:42.335Z,9.74
2018-04-28T09:23:42.313Z,9.34
2018-04-28T09:24:42.283Z,9.34
2018-04-28T09:25:42.258Z,9.55
2018-04-28T09:26:42.233Z,9.55
2018-04-28T09:27:42.208Z,9.45
2018-04-28T09:28:42.182Z,9.45
2018-04-28T09:29:42.159Z,9.55
2018-04-28T09:30:42.132Z,9.55
2018-04-28T09:31:42.106Z,8.95
2018-04-28T09:32:42.080Z,9.14
2018-04-28T09:33:42.057Z,9.14
2018-04-28T09:34:42.029Z,9.54
2018-04-28T09:35:42.003Z,9.43
2018-04-28T09:36:41.976Z,9.53
2018-04-28T09:37:41.953Z,9.73
2018-04-28T09:38:41.925Z,9.63
2018-04-28T09:39:41.900Z,9.73
2018-04-28T09:40:41.873Z,9.83
2018-04-28T09:41:41.847Z,9.33
2018-04-28T09:42:41.821Z,9.43
2018-04-28T09:43:41.829Z,9.42
2018-04-28T09:44:41.768Z,9.41
2018-04-28T09:45:41.742Z,10.28
2018-04-28T09:46:41.715Z,10.66
2018-04-28T09:47:41.689Z,11.82
2018-04-28T09:48:41.660Z,12.39
2018-04-28T09:49:41.633Z,13.84
2018-04-28T09:50:41.605Z,14.32
2018-04-28T09:51:41.577Z,15.28
2018-04-28T09:52:41.546Z,15.64
2018-04-28T09:53:41.517Z,16.42
2018-04-28T09:54:41.487Z,17.19
2018-04-28T09:55:41.457Z,17.85
2018-04-28T09:56:41.426Z,18.04
2018-04-28T09:57:41.395Z,18.71
2018-04-28T09:58:41.363Z,18.99
2018-04-28T09:59:41.331Z,19.08
2018-04-28T10:00:41.299Z,19.95
2018-04-28T10:01:41.269Z,20.04
2018-04-28T10:02:41.233Z,20.32
2018-04-28T10:03:41.201Z,20.52
2018-04-28T10:04:41.167Z,20.80
2018-04-28T10:05:41.134Z,20.71
2018-04-28T10:06:41.100Z,21.19
2018-04-28T10:07:41.066Z,21.47
2018-04-28T10:08:41.037Z,22.44
2018-04-28T10:09:40.998Z,22.14
2018-04-28T10:10:40.969Z,22.72
2018-04-28T10:11:40.930Z,23.11
2018-04-28T10:12:40.984Z,23.39
2018-04-28T10:13:40.913Z,23.49
2018-04-28T10:14:40.825Z,23.69
2018-04-28T10:15:40.791Z,23.69
2018-04-28T10:16:40.754Z,24.27
2018-04-28T10:17:40.719Z,24.56
2018-04-28T10:18:40.684Z,25.03
2018-04-28T10:19:40.649Z,24.93
2018-04-28T10:20:40.613Z,24.74
2018-04-28T10:21:40.578Z,25.03
2018-04-28T10:22:40.543Z,24.74
2018-04-28T10:23:40.508Z,25.42
2018-04-28T10:24:40.469Z,25.62
2018-04-28T10:25:40.432Z,25.62
2018-04-28T10:26:40.419Z,25.52
2018-04-28T10:27:40.360Z,25.60
2018-04-28T10:28:40.324Z,25.60
2018-04-28T10:29:40.287Z,25.70
2018-04-28T10:30:40.251Z,25.60
2018-04-28T10:31:40.261Z,25.60
2018-04-28T10:32:40.177Z,25.70
2018-04-28T10:33:40.141Z,25.51
2018-04-28T10:34:40.104Z,24.83
2018-04-28T10:35:40.067Z,25.12
2018-04-28T10:36:40.030Z,24.52
2018-04-28T10:37:40.000Z,25.10
2018-04-28T10:38:39.956Z,25.10
2018-04-28T10:39:39.920Z,25.01
2018-04-28T10:40:39.881Z,24.91
2018-04-28T10:41:39.849Z,25.10
2018-04-28T10:42:39.807Z,25.20
2018-04-28T10:43:39.769Z,25.09
2018-04-28T10:44:39.731Z,24.51
2018-04-28T10:45:39.694Z,25.09
2018-04-28T10:46:39.656Z,25.09
2018-04-28T10:47:39.621Z,25.09
2018-04-28T10:48:39.581Z,25.29
2018-04-28T10:49:39.543Z,25.56
2018-04-28T10:50:39.507Z,25.47
2018-04-28T10:51:39.468Z,25.56
2018-04-28T10:52:39.431Z,25.66
2018-04-28T10:53:39.414Z,25.56
2018-04-28T10:54:39.356Z,25.65
2018-04-28T10:55:39.316Z,25.47
2018-04-28T10:56:39.276Z,25.66
2018-04-28T10:57:39.238Z,25.56
2018-04-28T10:58:39.200Z,25.47
2018-04-28T10:59:39.161Z,25.47
2018-04-28T11:00:39.123Z,25.47
2018-04-28T11:01:39.085Z,25.47
2018-04-28T11:02:39.097Z,25.66
2018-04-28T11:03:39.013Z,25.08
2018-04-28T11:04:38.970Z,24.88
2018-04-28T11:05:38.943Z,24.87
2018-04-28T11:06:38.894Z,25.07
2018-04-28T11:07:38.855Z,24.97
2018-04-28T11:08:38.816Z,25.16
2018-04-28T11:09:38.778Z,25.36
2018-04-28T11:10:38.742Z,25.55
2018-04-28T11:11:38.703Z,25.65
2018-04-28T11:12:38.664Z,25.65
2018-04-28T11:13:38.624Z,25.65
2018-04-28T11:14:38.585Z,25.46
2018-04-28T11:15:38.547Z,25.36
2018-04-28T11:16:38.508Z,25.46
2018-04-28T11:17:38.475Z,25.55
2018-04-28T11:18:38.431Z,25.55
2018-04-28T11:19:38.425Z,25.63
2018-04-28T11:20:38.361Z,25.44
2018-04-28T11:21:38.316Z,25.54
2018-04-28T11:22:38.280Z,25.93
2018-04-28T11:23:38.238Z,25.83
2018-04-28T11:24:38.197Z,25.73
2018-04-28T11:25:38.243Z,25.63
2018-04-28T11:26:38.121Z,26.03
2018-04-28T11:27:38.082Z,26.12
2018-04-28T11:28:38.042Z,26.12
2018-04-28T11:29:38.003Z,25.73
2018-04-28T11:30:37.964Z,26.03
2018-04-28T11:31:37.926Z,26.21
2018-04-28T11:32:37.886Z,26.14
2018-04-28T11:33:37.847Z,26.51
2018-04-28T11:34:37.809Z,26.32
2018-04-28T11:35:37.769Z,26.52
2018-04-28T11:36:37.729Z,26.32
2018-04-28T11:37:37.691Z,26.32
2018-04-28T11:38:37.652Z,26.23
2018-04-28T11:39:37.614Z,25.85
2018-04-28T11:40:37.575Z,26.15
2018-04-28T11:41:37.536Z,26.15
2018-04-28T11:42:37.498Z,26.15
2018-04-28T11:43:37.559Z,26.25
2018-04-28T11:44:37.420Z,26.92
2018-04-28T11:45:37.381Z,26.63
2018-04-28T11:46:37.348Z,26.73
2018-04-28T11:47:37.304Z,26.63
2018-04-28T11:48:37.265Z,26.92
2018-04-28T11:49:37.228Z,26.53
2018-04-28T11:50:37.188Z,26.82
2018-04-28T11:51:37.150Z,26.82
2018-04-28T11:52:37.113Z,27.31
2018-04-28T11:53:37.073Z,27.40
2018-04-28T11:54:37.034Z,27.60
2018-04-28T11:55:37.002Z,27.01
2018-04-28T11:56:36.957Z,27.31
2018-04-28T11:57:36.918Z,27.70
2018-04-28T11:58:36.880Z,27.60
2018-04-28T11:59:36.841Z,27.58
2018-04-28T12:00:36.802Z,27.39
2018-04-28T12:01:36.764Z,27.68
2018-04-28T12:02:36.784Z,27.87
2018-04-28T12:03:36.687Z,27.58
2018-04-28T12:04:36.647Z,27.68
2018-04-28T12:05:36.609Z,27.68
2018-04-28T12:06:36.571Z,27.58
2018-04-28T12:07:36.533Z,27.39
2018-04-28T12:08:36.493Z,27.68
2018-04-28T12:09:36.455Z,28.17
2018-04-28T12:10:36.416Z,28.26
2018-04-28T12:11:36.380Z,28.55
2018-04-28T12:12:36.370Z,28.54
2018-04-28T12:13:36.300Z,28.64
2018-04-28T12:14:36.274Z,28.73
2018-04-28T12:15:36.222Z,28.73
2018-04-28T12:16:36.182Z,28.83
2018-04-28T12:17:36.144Z,28.83
2018-04-28T12:18:36.105Z,28.83
2018-04-28T12:19:36.067Z,28.81
2018-04-28T12:20:36.027Z,28.92
2018-04-28T12:21:35.989Z,29.01
2018-04-28T12:22:35.949Z,28.72
2018-04-28T12:23:35.910Z,28.91
2018-04-28T12:24:35.870Z,28.91
2018-04-28T12:25:35.832Z,28.81
2018-04-28T12:26:35.792Z,28.81
2018-04-28T12:27:35.754Z,28.81
2018-04-28T12:28:35.713Z,29.20
2018-04-28T12:29:35.674Z,28.81
2018-04-28T12:30:35.686Z,28.72
2018-04-28T12:31:35.596Z,28.91
2018-04-28T12:32:35.556Z,28.80
2018-04-28T12:33:35.518Z,28.91
2018-04-28T12:34:35.479Z,28.81
2018-04-28T12:35:35.440Z,28.91
2018-04-28T12:36:35.433Z,28.81
2018-04-28T12:37:35.363Z,28.72
2018-04-28T12:38:35.321Z,28.33
2018-04-28T12:39:35.282Z,28.14
2018-04-28T12:40:35.242Z,28.14
2018-04-28T12:41:35.203Z,28.23
2018-04-28T12:42:35.164Z,27.66
2018-04-28T12:43:35.124Z,27.56
2018-04-28T12:44:35.085Z,27.56
2018-04-28T12:45:35.045Z,27.66
2018-04-28T12:46:35.006Z,27.57
2018-04-28T12:47:34.966Z,27.57
2018-04-28T12:48:34.927Z,27.28
2018-04-28T12:49:34.887Z,27.47
2018-04-28T12:50:34.903Z,27.28
2018-04-28T12:51:34.809Z,27.28
2018-04-28T12:52:34.769Z,27.19
2018-04-28T12:53:34.730Z,27.09